EBA weather

Marina Di Campo Airport
Marina Di Campo, Tuscany, Italy

Public forecast

Using degrees Celsius for public forecast. Weather courtesy of forecast.io.

METAR (pilot weather report)

Closest report is Bastia-Poretta Airport, 35.6 nm (66.0 km) WSW. Retrieved 2019/07/24 01:30 UTC (0 seconds ago):

LFKB 240130Z AUTO 22005KT CAVOK ///// Q1016 NOSIG

TAF (pilot weather forecast)

Closest forecast is Bastia-Poretta Airport, 35.6 nm (66.0 km) WSW. Retrieved 2019/07/23 21:46 UTC (4 hours ago):

TAF LFKB 232000Z 2321/2421 24004KT CAVOK TX34/2412Z TN24/2403Z BECMG 2408/2409 04010KT BECMG 2416/2418 VRB03KT